createdAt,value
2022-07-31T00:02:06.070Z,23.60
2022-07-31T00:07:40.461Z,23.60
2022-07-31T00:10:27.681Z,24.30
2022-07-31T00:13:13.512Z,23.50
2022-07-31T00:15:59.494Z,22.80
2022-07-31T00:18:47.545Z,23.10
2022-07-31T00:21:34.827Z,23.10
2022-07-31T00:24:21.454Z,23.50
2022-07-31T00:27:09.769Z,22.50
2022-07-31T00:29:55.828Z,24.20
2022-07-31T00:32:44.341Z,22.60
2022-07-31T00:35:30.450Z,22.80
2022-07-31T00:38:32.919Z,23.30
2022-07-31T00:44:06.605Z,22.80
2022-07-31T00:47:01.721Z,23.20
2022-07-31T00:49:48.493Z,23.50
2022-07-31T00:52:35.392Z,23.30
2022-07-31T00:55:24.218Z,23.30
2022-07-31T00:58:09.740Z,22.90
2022-07-31T01:00:55.733Z,23.00
2022-07-31T01:03:42.110Z,22.90
2022-07-31T01:06:29.352Z,22.50
2022-07-31T01:09:16.926Z,22.90
2022-07-31T01:12:33.534Z,23.00
2022-07-31T01:15:21.963Z,23.00
2022-07-31T01:18:11.406Z,23.30
2022-07-31T01:21:03.307Z,22.70
2022-07-31T01:24:30.306Z,22.80
2022-07-31T01:28:06.341Z,23.00
2022-07-31T01:31:17.317Z,22.70
2022-07-31T01:34:29.663Z,22.80
2022-07-31T01:37:27.998Z,22.80
2022-07-31T01:40:16.850Z,22.80
2022-07-31T01:43:08.178Z,22.70
2022-07-31T01:45:57.620Z,22.70
2022-07-31T01:48:45.564Z,22.70
2022-07-31T01:51:33.831Z,22.60
2022-07-31T01:54:22.927Z,22.60
2022-07-31T01:57:13.190Z,22.60
2022-07-31T02:00:33.185Z,22.60
2022-07-31T02:03:19.488Z,22.60
2022-07-31T02:06:27.276Z,22.60
2022-07-31T02:09:14.329Z,22.60
2022-07-31T02:12:00.977Z,22.50
2022-07-31T02:14:48.034Z,22.50
2022-07-31T02:17:35.523Z,22.50
2022-07-31T02:20:38.724Z,22.40
2022-07-31T02:23:25.180Z,22.30
2022-07-31T02:26:12.163Z,22.30
2022-07-31T02:29:01.104Z,22.30
2022-07-31T02:32:01.828Z,22.30
2022-07-31T02:34:50.329Z,22.30
2022-07-31T02:37:40.319Z,22.30
2022-07-31T02:40:27.084Z,22.30
2022-07-31T02:43:13.788Z,22.20
2022-07-31T02:46:00.063Z,22.20
2022-07-31T02:48:46.761Z,22.10
2022-07-31T02:51:42.739Z,22.20
2022-07-31T02:54:30.147Z,22.10
2022-07-31T02:57:17.940Z,22.10
2022-07-31T03:00:22.965Z,22.10
2022-07-31T03:03:11.880Z,22.10
2022-07-31T03:05:58.781Z,22.10
2022-07-31T03:08:44.874Z,22.00
2022-07-31T03:11:37.279Z,22.00
2022-07-31T03:14:25.550Z,22.00
2022-07-31T03:17:20.142Z,21.90
2022-07-31T03:20:10.399Z,21.90
2022-07-31T03:22:56.929Z,21.90
2022-07-31T03:25:44.654Z,21.90
2022-07-31T03:28:36.295Z,21.90
2022-07-31T03:31:25.607Z,21.80
2022-07-31T03:34:13.478Z,21.80
2022-07-31T03:37:00.974Z,21.80
2022-07-31T03:39:48.382Z,21.80
2022-07-31T03:42:45.097Z,21.80
2022-07-31T03:45:34.942Z,21.80
2022-07-31T03:48:22.378Z,21.40
2022-07-31T03:51:10.816Z,21.70
2022-07-31T03:53:59.287Z,22.40
2022-07-31T03:57:10.181Z,21.70
2022-07-31T04:00:04.485Z,21.80
2022-07-31T04:03:12.546Z,22.50
2022-07-31T04:06:11.341Z,21.60
2022-07-31T04:09:07.931Z,21.60
2022-07-31T04:12:06.794Z,21.60
2022-07-31T04:14:54.019Z,21.50
2022-07-31T04:17:40.281Z,21.50
2022-07-31T04:20:28.063Z,20.80
2022-07-31T04:23:16.667Z,21.20
2022-07-31T04:26:25.701Z,21.50
2022-07-31T04:29:22.366Z,21.50
2022-07-31T04:32:08.945Z,21.80
2022-07-31T04:35:03.241Z,21.50
2022-07-31T04:37:49.751Z,21.50
2022-07-31T04:40:36.329Z,21.70
2022-07-31T04:43:21.959Z,21.60
2022-07-31T04:46:17.049Z,22.10
2022-07-31T04:49:05.285Z,21.70
2022-07-31T04:51:53.343Z,21.70
2022-07-31T04:54:39.161Z,21.70
2022-07-31T04:57:27.377Z,21.70
2022-07-31T05:00:14.064Z,21.80
2022-07-31T05:02:59.884Z,22.30
2022-07-31T05:05:50.077Z,21.90
2022-07-31T05:08:36.290Z,22.00
2022-07-31T05:11:25.136Z,22.10
2022-07-31T05:14:15.722Z,22.30
2022-07-31T05:17:06.690Z,22.40
2022-07-31T05:20:13.441Z,22.40
2022-07-31T05:23:17.202Z,22.80
2022-07-31T05:26:26.610Z,23.30
2022-07-31T05:29:12.273Z,23.50
2022-07-31T05:32:00.358Z,24.40
2022-07-31T05:34:58.816Z,24.50
2022-07-31T05:37:45.924Z,25.60
2022-07-31T05:40:32.349Z,25.20
2022-07-31T05:43:39.980Z,25.40
2022-07-31T05:46:34.152Z,26.40
2022-07-31T05:49:22.504Z,25.80
2022-07-31T05:52:11.409Z,26.00
2022-07-31T05:54:57.494Z,26.60
2022-07-31T05:58:02.514Z,26.30
2022-07-31T06:00:49.979Z,26.60
2022-07-31T06:03:50.543Z,26.60
2022-07-31T06:06:42.968Z,26.70
2022-07-31T06:09:30.285Z,26.70
2022-07-31T06:12:17.177Z,26.70
2022-07-31T06:15:03.349Z,26.70
2022-07-31T06:17:56.921Z,26.70
2022-07-31T06:20:48.568Z,26.90
2022-07-31T06:23:35.110Z,26.80
2022-07-31T06:26:45.121Z,27.20
2022-07-31T06:29:41.865Z,27.10
2022-07-31T06:32:33.977Z,27.30
2022-07-31T06:35:21.041Z,27.50
2022-07-31T06:38:33.161Z,27.60
2022-07-31T06:41:49.163Z,27.80
2022-07-31T06:44:47.111Z,28.10
2022-07-31T06:47:53.985Z,28.30
2022-07-31T06:51:32.566Z,28.60
2022-07-31T06:54:13.181Z,28.70
2022-07-31T06:56:59.110Z,28.80
2022-07-31T06:59:46.554Z,29.10
2022-07-31T07:02:32.973Z,29.20
2022-07-31T07:05:19.155Z,29.40
2022-07-31T07:08:09.653Z,29.50
2022-07-31T07:10:56.061Z,28.90
2022-07-31T07:13:48.210Z,29.70
2022-07-31T07:16:36.433Z,29.60
2022-07-31T07:19:22.134Z,30.00
2022-07-31T07:22:10.087Z,29.90
2022-07-31T07:24:56.162Z,30.10
2022-07-31T07:27:42.978Z,29.70
2022-07-31T07:30:30.313Z,30.30
2022-07-31T07:33:41.398Z,30.60
2022-07-31T07:36:32.631Z,30.60
2022-07-31T07:39:24.703Z,30.80
2022-07-31T07:42:10.622Z,30.60
2022-07-31T07:44:57.390Z,30.80
2022-07-31T07:47:53.832Z,30.80
2022-07-31T07:56:41.475Z,31.20
2022-07-31T07:59:49.949Z,31.30
2022-07-31T08:03:02.715Z,31.30
2022-07-31T08:06:03.485Z,31.80
2022-07-31T08:08:49.845Z,31.00
2022-07-31T08:11:56.337Z,31.30
2022-07-31T08:15:03.152Z,32.40
2022-07-31T08:18:09.745Z,31.40
2022-07-31T08:20:57.468Z,31.20
2022-07-31T08:23:44.522Z,32.20
2022-07-31T08:26:50.489Z,32.10
2022-07-31T08:29:37.812Z,32.70
2022-07-31T08:32:42.774Z,32.30
2022-07-31T08:35:52.469Z,33.30
2022-07-31T08:38:39.714Z,33.10
2022-07-31T08:42:10.757Z,32.90
2022-07-31T08:44:57.625Z,33.60
2022-07-31T08:47:49.285Z,33.50
2022-07-31T08:50:45.018Z,33.30
2022-07-31T08:53:48.670Z,32.80
2022-07-31T08:56:40.221Z,33.10
2022-07-31T08:59:27.158Z,33.50
2022-07-31T09:02:15.734Z,33.30
2022-07-31T09:05:22.834Z,33.80
2022-07-31T09:08:12.385Z,33.10
2022-07-31T09:11:05.883Z,32.60
2022-07-31T09:14:05.024Z,32.80
2022-07-31T09:17:05.183Z,32.80
2022-07-31T09:19:54.899Z,33.00
2022-07-31T09:22:47.096Z,32.80
2022-07-31T09:25:33.631Z,33.30
2022-07-31T09:28:30.772Z,32.50
2022-07-31T09:31:17.513Z,33.10
2022-07-31T09:36:55.937Z,32.90
2022-07-31T09:43:18.582Z,33.40
2022-07-31T09:46:06.942Z,32.80
2022-07-31T09:48:56.733Z,32.70
2022-07-31T09:51:50.076Z,32.70
2022-07-31T09:54:39.313Z,32.40
2022-07-31T09:57:32.060Z,32.50
2022-07-31T10:00:19.045Z,32.80
2022-07-31T10:03:07.468Z,33.00
2022-07-31T10:05:55.885Z,32.60
2022-07-31T10:08:46.436Z,32.70
2022-07-31T10:11:46.366Z,32.50
2022-07-31T10:14:41.312Z,32.50
2022-07-31T10:17:36.056Z,32.60
2022-07-31T10:20:44.081Z,32.60
2022-07-31T10:23:45.981Z,32.60
2022-07-31T10:26:59.278Z,32.60
2022-07-31T10:29:45.156Z,32.60
2022-07-31T10:32:32.353Z,32.50
2022-07-31T10:35:44.658Z,32.30
2022-07-31T10:39:55.026Z,32.40
2022-07-31T10:43:07.074Z,32.40
2022-07-31T10:45:56.121Z,32.30
2022-07-31T10:49:01.157Z,32.20
2022-07-31T10:52:32.843Z,32.30
2022-07-31T10:55:45.947Z,32.30
2022-07-31T10:58:58.813Z,32.20
2022-07-31T11:02:11.039Z,32.20
2022-07-31T11:05:30.829Z,32.20
2022-07-31T11:08:55.365Z,32.20
2022-07-31T11:12:00.166Z,32.20
2022-07-31T11:15:23.766Z,32.30
2022-07-31T11:18:42.931Z,32.40
2022-07-31T11:21:40.369Z,32.30
2022-07-31T11:24:27.806Z,32.30
2022-07-31T11:27:15.382Z,32.40
2022-07-31T11:30:13.416Z,32.50
2022-07-31T11:33:00.269Z,32.50
2022-07-31T11:35:46.353Z,32.60
2022-07-31T11:38:33.423Z,32.60
2022-07-31T11:41:23.560Z,32.60
2022-07-31T11:44:10.379Z,32.60
2022-07-31T11:46:57.366Z,32.60
2022-07-31T11:49:49.026Z,32.70
2022-07-31T11:52:36.810Z,32.70
2022-07-31T11:55:24.252Z,32.80
2022-07-31T11:58:14.631Z,32.80
2022-07-31T12:01:04.103Z,32.80
2022-07-31T12:03:50.395Z,32.80
2022-07-31T12:06:37.613Z,32.80
2022-07-31T12:10:02.211Z,32.80
2022-07-31T12:12:33.109Z,32.80
2022-07-31T12:15:20.867Z,32.80
2022-07-31T12:18:06.816Z,32.90
2022-07-31T12:21:04.167Z,32.60
2022-07-31T12:23:52.080Z,32.50
2022-07-31T12:26:38.728Z,32.30
2022-07-31T12:29:33.472Z,32.30
2022-07-31T12:32:27.352Z,32.40
2022-07-31T12:35:16.346Z,32.50
2022-07-31T12:38:14.177Z,32.50
2022-07-31T12:41:09.615Z,32.60
2022-07-31T12:44:13.416Z,32.80
2022-07-31T12:47:01.735Z,32.80
2022-07-31T12:49:48.781Z,32.80
2022-07-31T12:52:37.600Z,32.80
2022-07-31T12:55:24.720Z,32.80
2022-07-31T12:58:11.090Z,32.90
2022-07-31T13:00:57.727Z,33.00
2022-07-31T13:03:46.007Z,33.00
2022-07-31T13:06:32.469Z,33.00
2022-07-31T13:09:19.783Z,33.00
2022-07-31T13:12:05.498Z,33.00
2022-07-31T13:14:54.089Z,33.00
2022-07-31T13:17:43.710Z,33.00
2022-07-31T13:20:35.051Z,33.10
2022-07-31T13:23:21.469Z,32.80
2022-07-31T13:26:08.433Z,33.00
2022-07-31T13:28:54.690Z,33.10
2022-07-31T13:31:42.177Z,33.00
2022-07-31T13:34:31.770Z,33.10
2022-07-31T13:37:21.276Z,33.20
2022-07-31T13:40:08.485Z,33.20
2022-07-31T13:42:57.422Z,33.20
2022-07-31T13:45:44.268Z,33.20
2022-07-31T13:48:32.115Z,33.20
2022-07-31T13:51:19.285Z,33.10
2022-07-31T13:54:09.993Z,33.00
2022-07-31T13:56:55.685Z,33.00
2022-07-31T13:59:41.085Z,33.00
2022-07-31T14:02:30.171Z,33.10
2022-07-31T14:05:18.038Z,33.20
2022-07-31T14:08:32.976Z,33.00
2022-07-31T14:11:13.829Z,33.10
2022-07-31T14:14:01.415Z,33.10
2022-07-31T14:16:47.672Z,33.00
2022-07-31T14:19:43.990Z,33.00
2022-07-31T14:22:32.967Z,33.00
2022-07-31T14:25:19.650Z,33.00
2022-07-31T14:28:08.292Z,33.00
2022-07-31T14:30:53.926Z,33.00
2022-07-31T14:33:40.548Z,33.00
2022-07-31T14:36:29.372Z,32.90
2022-07-31T14:39:17.002Z,33.00
2022-07-31T14:42:06.665Z,33.00
2022-07-31T14:44:53.756Z,33.00
2022-07-31T14:47:39.628Z,32.90
2022-07-31T14:50:27.756Z,33.00
2022-07-31T14:56:03.625Z,32.80
2022-07-31T14:58:58.568Z,32.90
2022-07-31T15:01:44.718Z,32.90
2022-07-31T15:04:30.959Z,32.20
2022-07-31T15:10:25.119Z,33.20
2022-07-31T15:13:11.697Z,32.90
2022-07-31T15:15:57.488Z,32.80
2022-07-31T15:18:43.372Z,33.50
2022-07-31T15:21:30.523Z,33.10
2022-07-31T15:24:17.690Z,32.60
2022-07-31T15:32:54.234Z,32.80
2022-07-31T15:35:42.401Z,32.90
2022-07-31T15:38:28.243Z,32.80
2022-07-31T15:41:18.838Z,33.20
2022-07-31T15:52:35.337Z,33.10
2022-07-31T15:55:21.877Z,32.10
2022-07-31T16:00:57.061Z,32.70
2022-07-31T16:03:51.167Z,32.20
2022-07-31T16:06:39.151Z,32.50
2022-07-31T16:09:27.426Z,32.50
2022-07-31T16:12:14.668Z,32.40
2022-07-31T16:20:34.704Z,32.10
2022-07-31T16:23:25.615Z,32.10
2022-07-31T16:26:13.898Z,32.40
2022-07-31T16:29:00.782Z,32.30
2022-07-31T16:31:46.468Z,33.00
2022-07-31T16:37:19.890Z,32.30
2022-07-31T16:40:30.723Z,31.90
2022-07-31T16:43:47.786Z,32.20
2022-07-31T16:46:35.258Z,32.30
2022-07-31T16:49:35.460Z,31.90
2022-07-31T16:52:29.483Z,32.20
2022-07-31T16:55:17.171Z,31.90
2022-07-31T16:58:05.722Z,32.10
2022-07-31T17:00:53.695Z,32.30
2022-07-31T17:04:00.670Z,32.00
2022-07-31T17:06:46.134Z,32.40
2022-07-31T17:09:33.983Z,32.10
2022-07-31T17:12:22.039Z,32.00
2022-07-31T17:15:09.398Z,31.70
2022-07-31T17:20:47.425Z,31.50
2022-07-31T17:23:44.256Z,31.60
2022-07-31T17:26:33.080Z,31.70
2022-07-31T17:29:19.106Z,31.60
2022-07-31T17:32:08.123Z,31.60
2022-07-31T17:40:43.523Z,31.30
2022-07-31T17:43:49.854Z,31.30
2022-07-31T17:46:48.027Z,31.00
2022-07-31T17:52:21.440Z,30.90
2022-07-31T17:55:08.038Z,31.10
2022-07-31T17:57:55.238Z,30.90
2022-07-31T18:03:28.757Z,31.40
2022-07-31T18:06:15.388Z,30.80
2022-07-31T18:09:01.082Z,30.80
2022-07-31T18:14:36.119Z,30.80
2022-07-31T18:17:22.795Z,30.70
2022-07-31T18:20:10.530Z,30.60
2022-07-31T18:22:56.498Z,30.60
2022-07-31T18:25:46.299Z,30.70
2022-07-31T18:28:37.295Z,30.50
2022-07-31T18:31:33.987Z,30.70
2022-07-31T18:34:21.741Z,30.40
2022-07-31T18:39:55.806Z,30.10
2022-07-31T18:42:42.078Z,30.10
2022-07-31T18:45:30.432Z,29.90
2022-07-31T18:48:16.541Z,30.00
2022-07-31T18:51:04.897Z,29.90
2022-07-31T18:53:54.429Z,29.80
2022-07-31T18:56:42.734Z,29.80
2022-07-31T18:59:28.558Z,29.70
2022-07-31T19:02:14.737Z,29.60
2022-07-31T19:05:00.775Z,29.50
2022-07-31T19:07:46.812Z,29.40
2022-07-31T19:10:36.968Z,29.30
2022-07-31T19:13:23.929Z,29.20
2022-07-31T19:16:09.925Z,29.10
2022-07-31T19:18:56.899Z,29.10
2022-07-31T19:21:43.670Z,28.90
2022-07-31T19:24:29.210Z,28.80
2022-07-31T19:27:16.578Z,28.70
2022-07-31T19:30:02.867Z,28.60
2022-07-31T19:32:48.703Z,28.50
2022-07-31T19:35:35.693Z,28.40
2022-07-31T19:38:44.905Z,27.90
2022-07-31T19:41:37.581Z,28.20
2022-07-31T19:44:26.173Z,28.10
2022-07-31T19:47:14.537Z,28.00
2022-07-31T19:50:02.358Z,28.00
2022-07-31T19:52:48.575Z,28.00
2022-07-31T19:55:37.682Z,27.90
2022-07-31T19:58:23.596Z,27.90
2022-07-31T20:01:10.485Z,27.80
2022-07-31T20:03:58.561Z,27.80
2022-07-31T20:06:44.800Z,27.70
2022-07-31T20:09:31.253Z,27.70
2022-07-31T20:12:18.730Z,27.30
2022-07-31T20:15:05.426Z,27.60
2022-07-31T20:17:54.416Z,27.50
2022-07-31T20:20:41.668Z,27.50
2022-07-31T20:23:28.481Z,27.40
2022-07-31T20:26:16.022Z,27.30
2022-07-31T20:29:04.098Z,27.30
2022-07-31T20:31:49.755Z,27.20
2022-07-31T20:34:38.471Z,27.20
2022-07-31T20:37:25.153Z,27.20
2022-07-31T20:40:14.449Z,27.20
2022-07-31T20:42:59.973Z,27.10
2022-07-31T20:45:47.390Z,26.90
2022-07-31T20:48:33.981Z,26.90
2022-07-31T20:51:22.112Z,26.80
2022-07-31T20:54:08.362Z,26.80
2022-07-31T20:56:54.065Z,26.80
2022-07-31T20:59:39.977Z,26.80
2022-07-31T21:02:26.448Z,26.80
2022-07-31T21:05:12.768Z,26.70
2022-07-31T21:08:12.880Z,26.70
2022-07-31T21:11:01.036Z,26.60
2022-07-31T21:13:47.110Z,26.50
2022-07-31T21:16:32.621Z,26.50
2022-07-31T21:19:18.238Z,26.40
2022-07-31T21:22:04.097Z,26.40
2022-07-31T21:24:50.362Z,26.40
2022-07-31T21:27:36.769Z,26.40
2022-07-31T21:30:22.894Z,26.30
2022-07-31T21:33:09.604Z,26.30
2022-07-31T21:35:55.871Z,26.20
2022-07-31T21:38:43.038Z,26.20
2022-07-31T21:41:28.876Z,26.20
2022-07-31T21:44:16.329Z,29.60
2022-07-31T21:47:06.009Z,26.00
2022-07-31T21:49:58.364Z,26.20
2022-07-31T21:52:44.256Z,25.80
2022-07-31T21:58:16.420Z,25.90
2022-07-31T22:01:02.226Z,25.70
2022-07-31T22:03:47.571Z,26.10
2022-07-31T22:06:51.673Z,25.70
2022-07-31T22:09:38.176Z,25.70
2022-07-31T22:12:23.661Z,25.60
2022-07-31T22:15:15.201Z,26.30
2022-07-31T22:18:01.164Z,25.30
2022-07-31T22:20:47.289Z,25.40
2022-07-31T22:23:33.332Z,25.20
2022-07-31T22:26:19.745Z,25.40
2022-07-31T22:29:05.866Z,25.40
2022-07-31T22:31:54.024Z,25.40
2022-07-31T22:34:40.112Z,25.30
2022-07-31T22:37:29.302Z,25.40
2022-07-31T22:40:16.764Z,25.30
2022-07-31T22:43:02.775Z,25.30
2022-07-31T22:48:38.674Z,25.20
2022-07-31T22:51:24.470Z,25.20
2022-07-31T22:54:10.102Z,25.20
2022-07-31T22:56:55.627Z,25.20
2022-07-31T22:59:41.834Z,25.20
2022-07-31T23:02:28.299Z,25.10
2022-07-31T23:05:14.143Z,25.10
2022-07-31T23:07:59.915Z,25.10
2022-07-31T23:10:45.757Z,25.10
2022-07-31T23:13:31.438Z,25.10
2022-07-31T23:16:17.138Z,25.10
2022-07-31T23:19:03.263Z,25.10
2022-07-31T23:21:49.001Z,25.10
2022-07-31T23:24:34.284Z,25.00
2022-07-31T23:27:19.967Z,25.30
2022-07-31T23:30:06.053Z,25.00
2022-07-31T23:32:51.599Z,25.00
2022-07-31T23:35:37.541Z,25.00
2022-07-31T23:38:22.793Z,25.00
2022-07-31T23:41:09.063Z,24.90
2022-07-31T23:43:55.457Z,24.90
2022-07-31T23:46:41.598Z,24.90
2022-07-31T23:49:27.336Z,24.90
2022-07-31T23:52:13.569Z,24.80
2022-07-31T23:54:58.952Z,24.80
2022-07-31T23:57:45.569Z,24.80
